Time;durP1;ratioP1;P1;durP2;ratioP2;P2;SDS_P1;SDS_P2;PMS_P1;PMS_P2;Temp;Humidity;BMP_temperature;BMP_pressure;BME280_temperature;BME280_humidity;BME280_pressure;Samples;Min_cycle;Max_cycle;Signal;HPM_P1;HPM_P2
2022/05/24 00:01:26;;;;;;;5.80;5.28;;;15.60;99.90;;;;;;5030773;28;20104;-45
2022/05/24 00:03:52;;;;;;;5.18;4.68;;;15.60;99.90;;;;;;5031144;28;20116;-45
2022/05/24 00:06:18;;;;;;;5.72;5.15;;;15.50;99.90;;;;;;5031171;28;20503;-44
2022/05/24 00:08:44;;;;;;;6.32;5.47;;;15.50;99.90;;;;;;5031191;28;20087;-43
2022/05/24 00:11:10;;;;;;;5.88;5.35;;;15.50;99.90;;;;;;5031185;28;20030;-45
2022/05/24 00:13:36;;;;;;;5.65;5.18;;;15.50;99.90;;;;;;5031383;28;20077;-49
2022/05/24 00:16:03;;;;;;;5.60;5.10;;;15.60;99.90;;;;;;5030540;28;20107;-47
2022/05/24 00:18:30;;;;;;;5.78;5.15;;;15.50;99.90;;;;;;5013264;28;20033;-48
2022/05/24 00:20:59;;;;;;;5.90;5.15;;;15.60;99.90;;;;;;5030631;28;20450;-44
2022/05/24 00:23:26;;;;;;;7.25;5.15;;;15.60;99.90;;;;;;5030122;28;20024;-45
2022/05/24 00:25:55;;;;;;;5.32;4.55;;;15.60;99.90;;;;;;5011029;28;20050;-43
2022/05/24 00:28:25;;;;;;;5.63;4.78;;;15.60;99.90;;;;;;5010824;28;20485;-47
2022/05/24 00:30:51;;;;;;;5.85;5.30;;;15.60;99.90;;;;;;5010885;28;20026;-46
2022/05/24 00:33:17;;;;;;;5.70;5.20;;;15.50;99.90;;;;;;5010639;28;20041;-44
2022/05/24 00:35:44;;;;;;;8.43;5.72;;;15.50;99.90;;;;;;5011005;28;20034;-43
2022/05/24 00:38:12;;;;;;;6.65;5.38;;;15.50;99.90;;;;;;5025417;28;20029;-45
2022/05/24 00:40:58;;;;;;;7.25;5.32;;;15.50;99.90;;;;;;5030174;28;20041;-44
2022/05/24 00:43:31;;;;;;;;;;;15.50;99.90;;;;;;5030617;28;20455;-46
2022/05/24 00:46:11;;;;;;;7.28;5.60;;;15.50;99.90;;;;;;5029730;28;19979;-43
2022/05/24 00:48:50;;;;;;;6.15;5.63;;;15.50;99.90;;;;;;5030539;28;20052;-46
2022/05/24 00:51:23;;;;;;;5.10;4.70;;;15.50;99.90;;;;;;5029698;28;20029;-43
2022/05/24 00:53:53;;;;;;;6.40;5.70;;;15.50;99.90;;;;;;5030541;28;20022;-43
2022/05/24 00:56:27;;;;;;;5.65;5.15;;;15.50;99.90;;;;;;5030307;28;20056;-43
2022/05/24 00:58:59;;;;;;;6.55;5.70;;;15.50;99.90;;;;;;5028743;28;20037;-44
2022/05/24 01:01:41;;;;;;;5.85;5.07;;;15.50;99.90;;;;;;5027613;28;20562;-44
2022/05/24 01:04:10;;;;;;;6.38;5.78;;;15.50;99.90;;;;;;5028354;28;20100;-45
2022/05/24 01:06:36;;;;;;;6.25;5.68;;;15.50;99.90;;;;;;5030130;28;20423;-43
2022/05/24 01:09:07;;;;;;;8.43;6.47;;;15.50;99.90;;;;;;5012179;28;20109;-43
2022/05/24 01:11:38;;;;;;;6.05;5.55;;;15.40;99.90;;;;;;5029822;28;20120;-45
2022/05/24 01:14:07;;;;;;;6.45;5.95;;;15.40;99.90;;;;;;5029949;28;20420;-43
2022/05/24 01:16:33;;;;;;;6.82;6.18;;;15.40;99.90;;;;;;5030193;28;20021;-43
2022/05/24 01:18:59;;;;;;;6.40;5.85;;;15.40;99.90;;;;;;5030008;28;20037;-43
2022/05/24 01:21:25;;;;;;;5.85;5.35;;;15.40;99.90;;;;;;5029472;28;20476;-43
2022/05/24 01:24:12;;;;;;;6.47;5.90;;;15.40;99.90;;;;;;5029971;28;20028;-43
2022/05/24 01:26:49;;;;;;;6.88;5.70;;;15.40;99.90;;;;;;5029953;28;20048;-44
2022/05/24 01:29:15;;;;;;;6.53;5.88;;;15.40;99.90;;;;;;5030332;28;20035;-45
2022/05/24 01:37:12;;;;;;;6.28;5.72;;;15.50;99.90;;;;;;5030050;28;20095;-44
2022/05/24 01:39:40;;;;;;;6.20;5.60;;;15.50;99.90;;;;;;5029864;28;20033;-43
2022/05/24 01:42:06;;;;;;;6.70;6.18;;;15.40;99.90;;;;;;5029672;28;20021;-43
2022/05/24 01:44:58;;;;;;;6.88;6.10;;;15.50;99.90;;;;;;5029241;28;20053;-43
2022/05/24 01:47:25;;;;;;;7.47;6.57;;;15.40;99.90;;;;;;5029869;28;20022;-45
2022/05/24 01:49:56;;;;;;;6.80;6.20;;;15.50;99.90;;;;;;5029815;28;20088;-43
2022/05/24 01:52:47;;;;;;;7.80;7.20;;;15.50;99.90;;;;;;5029336;28;20025;-44
2022/05/24 01:55:22;;;;;;;8.70;7.80;;;15.50;99.90;;;;;;5029637;28;20030;-44
2022/05/24 01:57:52;;;;;;;10.63;9.52;;;15.50;99.90;;;;;;5029514;28;20083;-44
2022/05/24 02:00:18;;;;;;;10.75;9.65;;;15.50;99.90;;;;;;5029765;28;20029;-43
2022/05/24 02:02:44;;;;;;;10.18;9.23;;;15.50;99.90;;;;;;5029342;28;20100;-44
2022/05/24 02:05:11;;;;;;;9.30;8.27;;;15.40;99.90;;;;;;5029695;28;20495;-43
2022/05/24 02:07:38;;;;;;;8.63;7.72;;;15.40;99.90;;;;;;5029944;28;20551;-42
2022/05/24 02:10:04;;;;;;;8.90;7.95;;;15.40;99.90;;;;;;5011937;28;20025;-43
2022/05/24 02:12:42;;;;;;;8.15;7.43;;;15.30;99.90;;;;;;5029385;28;20041;-44
2022/05/24 02:15:10;;;;;;;8.40;7.60;;;15.30;99.90;;;;;;5029470;28;20052;-43
2022/05/24 02:17:42;;;;;;;7.78;6.97;;;15.30;99.90;;;;;;5029555;28;20026;-43
2022/05/24 02:20:11;;;;;;;8.75;6.63;;;15.20;99.90;;;;;;5029251;28;20037;-47
2022/05/24 02:22:38;;;;;;;6.75;6.15;;;15.20;99.90;;;;;;5029518;28;20506;-46
2022/05/24 02:25:18;;;;;;;6.20;5.47;;;15.20;99.90;;;;;;5029175;28;20069;-44
2022/05/24 02:27:46;;;;;;;6.90;6.15;;;15.10;99.90;;;;;;5029262;28;20033;-45
2022/05/24 02:30:14;;;;;;;7.18;6.45;;;15.00;99.90;;;;;;5029428;28;20113;-44
2022/05/24 02:32:40;;;;;;;6.28;5.68;;;15.00;99.90;;;;;;5029234;28;20025;-46
2022/05/24 02:35:07;;;;;;;6.63;6.03;;;14.90;99.90;;;;;;5029311;28;20076;-46
2022/05/24 02:37:32;;;;;;;9.43;6.78;;;14.80;99.90;;;;;;5029524;28;20124;-44
2022/05/24 02:42:42;;;;;;;7.93;6.00;;;14.80;99.90;;;;;;5029339;28;20110;-47
2022/05/24 02:45:08;;;;;;;7.22;6.63;;;14.80;99.90;;;;;;5023754;28;20435;-43
2022/05/24 02:47:34;;;;;;;8.75;7.93;;;14.70;99.90;;;;;;5033112;28;20048;-43
2022/05/24 02:49:59;;;;;;;8.55;7.65;;;14.70;99.90;;;;;;5033115;28;20131;-48
2022/05/24 02:52:25;;;;;;;9.27;7.60;;;14.70;99.90;;;;;;5031940;28;20025;-43
2022/05/24 02:54:51;;;;;;;10.95;8.25;;;14.70;99.90;;;;;;5032345;28;20044;-43
2022/05/24 02:57:16;;;;;;;8.77;7.70;;;14.60;99.90;;;;;;5032728;28;20025;-44
2022/05/24 02:59:42;;;;;;;8.95;7.97;;;14.60;99.90;;;;;;5031977;28;20376;-44
2022/05/24 03:02:07;;;;;;;8.50;7.25;;;14.60;99.90;;;;;;5032310;28;20116;-46
2022/05/24 03:04:34;;;;;;;9.25;7.63;;;14.60;99.90;;;;;;5030871;28;20079;-43
2022/05/24 03:09:44;;;;;;;9.68;7.63;;;14.50;99.90;;;;;;5032655;28;20032;-47
2022/05/24 03:14:59;;;;;;;10.88;8.80;;;14.60;99.90;;;;;;5033316;28;20072;-43
2022/05/24 03:17:25;;;;;;;9.98;8.98;;;14.50;99.90;;;;;;5032531;28;20018;-43
2022/05/24 03:19:51;;;;;;;11.05;9.55;;;14.50;99.90;;;;;;5031768;28;20159;-49
2022/05/24 03:22:17;;;;;;;10.30;9.30;;;14.50;99.90;;;;;;5030892;28;20130;-44
2022/05/24 03:24:43;;;;;;;13.48;10.70;;;14.50;99.90;;;;;;5031905;28;20088;-46
2022/05/24 03:27:11;;;;;;;11.57;9.40;;;14.40;99.90;;;;;;5032375;28;20026;-44
2022/05/24 03:29:41;;;;;;;11.13;9.93;;;14.40;99.90;;;;;;5030760;28;20021;-47
2022/05/24 03:32:08;;;;;;;14.43;10.38;;;14.40;99.90;;;;;;5031871;28;20022;-47
2022/05/24 03:34:35;;;;;;;12.38;11.07;;;14.40;99.90;;;;;;5031667;28;20025;-43
2022/05/24 03:37:00;;;;;;;12.13;10.45;;;14.40;99.90;;;;;;5031890;28;20037;-47
2022/05/24 03:39:26;;;;;;;12.27;11.00;;;14.40;99.90;;;;;;5031572;28;20026;-47
2022/05/24 03:41:52;;;;;;;12.45;11.15;;;14.40;99.90;;;;;;5031441;28;20034;-48
2022/05/24 03:44:17;;;;;;;12.38;11.07;;;14.30;99.90;;;;;;5031136;28;20340;-47
2022/05/24 03:46:43;;;;;;;14.07;10.85;;;14.40;99.90;;;;;;5031904;28;20025;-44
2022/05/24 03:49:09;;;;;;;12.10;10.98;;;14.30;99.90;;;;;;5030785;28;20022;-43
2022/05/24 03:51:35;;;;;;;13.15;10.57;;;14.30;99.90;;;;;;5031035;28;20391;-45
2022/05/24 03:54:00;;;;;;;13.65;11.73;;;14.30;99.90;;;;;;5031488;28;20026;-44
2022/05/24 03:56:26;;;;;;;13.68;10.98;;;14.20;99.90;;;;;;5031659;28;20545;-43
2022/05/24 03:58:53;;;;;;;12.02;10.82;;;14.20;99.90;;;;;;5031394;28;20030;-48
2022/05/24 04:01:19;;;;;;;12.10;9.60;;;14.20;99.90;;;;;;5031103;28;20026;-44
2022/05/24 04:03:44;;;;;;;14.68;10.57;;;14.20;99.90;;;;;;5031413;28;20518;-44
2022/05/24 04:06:10;;;;;;;14.98;10.73;;;14.20;99.90;;;;;;5031547;28;20547;-44
2022/05/24 04:08:35;;;;;;;13.57;11.50;;;14.10;99.90;;;;;;5031327;28;20032;-44
2022/05/24 04:11:06;;;;;;;13.52;10.25;;;14.10;99.90;;;;;;5031260;28;20480;-46
2022/05/24 04:13:33;;;;;;;13.10;10.63;;;14.10;99.90;;;;;;5030839;28;20060;-45
2022/05/24 04:15:59;;;;;;;12.82;10.30;;;14.10;99.90;;;;;;5031293;28;20028;-46
2022/05/24 04:18:26;;;;;;;12.00;10.30;;;14.10;99.90;;;;;;5031082;28;20029;-47
2022/05/24 04:20:52;;;;;;;10.98;9.38;;;14.10;99.90;;;;;;5030632;28;20061;-45
2022/05/24 04:23:19;;;;;;;11.93;9.23;;;14.10;99.90;;;;;;5030746;28;20041;-43
2022/05/24 04:25:45;;;;;;;12.05;9.18;;;14.10;99.90;;;;;;5030631;28;20522;-46
2022/05/24 04:28:11;;;;;;;9.63;8.20;;;14.10;99.90;;;;;;5030670;28;20112;-44
2022/05/24 04:30:38;;;;;;;9.70;8.45;;;14.10;99.90;;;;;;5030629;28;20033;-46
2022/05/24 04:33:03;;;;;;;9.88;7.85;;;14.10;99.90;;;;;;5030346;28;20035;-46
2022/05/24 04:35:29;;;;;;;8.55;7.65;;;14.10;99.90;;;;;;5030323;28;20105;-43
2022/05/24 04:37:55;;;;;;;8.77;7.32;;;14.10;99.90;;;;;;5030410;28;20511;-45
2022/05/24 04:42:18;;;;;;;8.80;6.95;;;14.00;99.90;;;;;;5030180;28;20029;-45
2022/05/24 04:43:06;;;;;;;10.20;7.47;;;14.00;99.90;;;;;;5030429;28;20071;-46
2022/05/24 04:45:31;;;;;;;8.73;6.35;;;14.00;99.90;;;;;;5030195;28;20021;-43
2022/05/24 04:47:57;;;;;;;7.07;6.38;;;14.00;99.90;;;;;;5030493;28;20053;-44
2022/05/24 04:50:22;;;;;;;9.02;6.78;;;14.00;99.90;;;;;;5030074;28;20029;-43
2022/05/24 04:52:48;;;;;;;7.43;6.68;;;14.00;99.90;;;;;;5029837;28;20087;-43
2022/05/24 04:55:14;;;;;;;6.57;5.97;;;14.00;99.90;;;;;;5029894;28;20033;-43
2022/05/24 04:57:40;;;;;;;8.35;6.97;;;13.90;99.90;;;;;;5030369;28;20606;-44
2022/05/24 05:00:13;;;;;;;8.20;7.28;;;13.90;99.90;;;;;;5029108;28;20029;-45
2022/05/24 05:02:40;;;;;;;6.65;5.97;;;14.00;99.90;;;;;;5029903;28;20018;-43
2022/05/24 05:05:06;;;;;;;6.32;5.72;;;13.90;99.90;;;;;;5030148;28;20022;-44
2022/05/24 05:07:32;;;;;;;7.57;6.07;;;13.90;99.90;;;;;;5029933;28;20025;-44
2022/05/24 05:09:58;;;;;;;6.80;6.00;;;13.90;99.90;;;;;;5029952;28;20022;-45
2022/05/24 05:12:26;;;;;;;6.10;5.43;;;13.90;99.90;;;;;;5030207;28;20353;-43
2022/05/24 05:14:52;;;;;;;6.15;5.22;;;13.90;99.90;;;;;;5030067;28;20483;-45
2022/05/24 05:17:18;;;;;;;7.53;6.57;;;13.90;99.90;;;;;;5030263;28;20036;-43
2022/05/24 05:19:45;;;;;;;7.88;5.45;;;13.80;99.90;;;;;;5029997;28;20028;-44
2022/05/24 05:22:12;;;;;;;6.65;6.03;;;13.80;99.90;;;;;;5030180;28;20518;-43
2022/05/24 05:24:38;;;;;;;5.45;4.93;;;13.80;99.90;;;;;;5030191;28;20503;-43
2022/05/24 05:27:04;;;;;;;5.55;4.97;;;13.80;99.90;;;;;;5030207;28;20453;-43
2022/05/24 05:32:26;;;;;;;7.78;4.78;;;13.80;99.90;;;;;;5030461;28;20079;-46
2022/05/24 05:34:52;;;;;;;7.25;4.50;;;13.80;99.90;;;;;;5029938;28;20026;-44
2022/05/24 05:37:19;;;;;;;6.53;4.63;;;13.80;99.90;;;;;;5030013;28;20061;-43
2022/05/24 05:39:44;;;;;;;5.95;3.80;;;13.80;99.90;;;;;;5029957;28;20087;-43
2022/05/24 05:42:10;;;;;;;6.22;4.18;;;13.90;99.90;;;;;;5029484;28;20650;-45
2022/05/24 05:44:37;;;;;;;4.00;3.58;;;14.00;99.90;;;;;;5028967;28;20043;-45
2022/05/24 05:47:02;;;;;;;5.78;3.10;;;14.10;99.90;;;;;;5028729;28;20563;-43
2022/05/24 05:49:29;;;;;;;6.95;3.55;;;14.10;99.90;;;;;;5029999;28;20105;-45
2022/05/24 05:51:55;;;;;;;5.20;3.25;;;14.20;99.90;;;;;;5028445;28;20031;-45
2022/05/24 05:54:21;;;;;;;4.40;3.30;;;14.30;99.90;;;;;;5029699;28;20100;-50
2022/05/24 05:56:47;;;;;;;5.05;2.90;;;14.30;99.90;;;;;;5030049;28;20052;-47
2022/05/24 05:59:12;;;;;;;4.53;3.15;;;14.40;99.90;;;;;;5030199;28;20162;-46
2022/05/24 06:01:38;;;;;;;4.55;3.95;;;14.40;99.90;;;;;;5029510;28;20026;-44
2022/05/24 06:04:04;;;;;;;3.53;3.10;;;14.50;99.90;;;;;;5029581;28;20179;-46
2022/05/24 06:06:33;;;;;;;5.95;3.90;;;14.60;99.90;;;;;;5029478;28;20484;-47
2022/05/24 06:08:59;;;;;;;5.25;3.22;;;14.60;99.90;;;;;;5029719;28;20025;-45
2022/05/24 06:11:24;;;;;;;4.90;3.70;;;14.70;99.90;;;;;;5029201;28;20029;-46
2022/05/24 06:13:50;;;;;;;6.43;3.70;;;14.80;99.90;;;;;;5032002;28;20022;-45
2022/05/24 06:16:17;;;;;;;4.18;3.78;;;14.80;99.90;;;;;;5033305;28;20045;-44
2022/05/24 06:18:43;;;;;;;5.78;3.58;;;14.90;99.90;;;;;;5033504;28;20498;-49
2022/05/24 06:21:08;;;;;;;4.30;3.80;;;14.90;99.90;;;;;;5032829;28;20025;-48
2022/05/24 06:23:34;;;;;;;5.57;3.78;;;15.00;99.90;;;;;;5032987;28;20076;-44
2022/05/24 06:26:00;;;;;;;7.60;4.38;;;15.20;99.90;;;;;;5033357;28;20044;-44
2022/05/24 06:28:26;;;;;;;3.72;3.42;;;15.30;99.90;;;;;;5033172;28;20021;-45
2022/05/24 06:30:52;;;;;;;5.00;4.22;;;15.40;99.90;;;;;;5033216;28;20120;-50
2022/05/24 06:33:18;;;;;;;6.30;3.45;;;15.40;99.90;;;;;;5032987;28;20092;-45
2022/05/24 06:35:44;;;;;;;4.13;3.80;;;15.40;99.90;;;;;;5033220;28;20156;-47
2022/05/24 06:38:09;;;;;;;6.82;4.18;;;15.40;99.90;;;;;;5032189;28;20065;-48
2022/05/24 06:40:35;;;;;;;5.07;3.92;;;15.30;99.90;;;;;;5033145;28;20492;-45
2022/05/24 06:43:02;;;;;;;4.72;3.67;;;15.30;99.90;;;;;;5032774;28;20108;-47
2022/05/24 06:45:29;;;;;;;6.60;4.30;;;15.30;99.90;;;;;;5032367;28;20018;-46
2022/05/24 06:47:54;;;;;;;4.38;3.67;;;15.40;99.90;;;;;;5032944;28;20017;-48
2022/05/24 06:50:20;;;;;;;6.68;4.70;;;15.60;99.90;;;;;;5032499;28;20109;-45
2022/05/24 06:52:47;;;;;;;5.38;4.35;;;15.50;99.90;;;;;;5032510;28;20033;-44
2022/05/24 06:55:12;;;;;;;7.40;4.25;;;15.50;99.90;;;;;;5032642;28;20036;-48
2022/05/24 06:57:38;;;;;;;4.97;3.75;;;15.70;99.90;;;;;;5032534;28;20132;-47
2022/05/24 07:02:59;;;;;;;5.80;4.38;;;15.90;99.90;;;;;;5032510;28;20412;-49
2022/05/24 07:05:25;;;;;;;4.63;3.97;;;15.90;99.90;;;;;;5032426;28;20021;-46
2022/05/24 07:07:50;;;;;;;6.72;4.85;;;15.80;99.90;;;;;;5032288;28;20109;-43
2022/05/24 07:10:16;;;;;;;6.22;5.45;;;15.90;99.90;;;;;;5032385;28;20033;-46
2022/05/24 07:12:42;;;;;;;5.93;4.95;;;15.80;99.90;;;;;;5032192;28;20059;-47
2022/05/24 07:15:08;;;;;;;7.80;5.22;;;15.70;99.90;;;;;;5032505;28;20048;-45
2022/05/24 07:17:34;;;;;;;6.05;5.40;;;15.70;99.90;;;;;;5032264;28;20411;-44
2022/05/24 07:20:00;;;;;;;6.40;5.30;;;15.60;99.90;;;;;;5031830;28;20430;-44
2022/05/24 07:22:26;;;;;;;7.97;5.85;;;15.60;99.90;;;;;;5030471;28;20156;-45
2022/05/24 07:24:52;;;;;;;6.63;5.47;;;15.60;99.90;;;;;;5031681;28;20109;-45
2022/05/24 07:27:20;;;;;;;5.60;4.80;;;15.60;99.90;;;;;;5032112;28;20488;-47
2022/05/24 07:29:46;;;;;;;10.10;6.63;;;15.60;99.90;;;;;;5032001;28;20013;-50
2022/05/24 07:32:12;;;;;;;6.60;5.82;;;15.50;99.90;;;;;;5031860;28;20029;-44
2022/05/24 07:34:40;;;;;;;7.40;6.53;;;15.60;99.90;;;;;;5031757;28;20028;-45
2022/05/24 07:37:11;;;;;;;7.07;6.28;;;16.00;99.90;;;;;;5030426;28;20120;-46
2022/05/24 07:39:37;;;;;;;7.03;6.30;;;16.40;99.90;;;;;;5031779;28;20037;-45
2022/05/24 07:47:34;;;;;;;9.70;8.00;;;16.80;99.90;;;;;;5031679;28;20075;-44
2022/05/24 07:49:59;;;;;;;8.52;7.15;;;16.70;99.90;;;;;;5031654;28;20037;-44
2022/05/24 07:52:25;;;;;;;8.20;7.55;;;16.50;99.90;;;;;;5031333;28;20026;-44
2022/05/24 07:54:51;;;;;;;9.55;7.95;;;16.60;99.90;;;;;;5031798;28;20049;-44
2022/05/24 07:57:16;;;;;;;9.73;8.73;;;16.60;99.90;;;;;;5031779;28;20056;-44
2022/05/24 07:59:47;;;;;;;9.27;8.07;;;16.70;99.90;;;;;;5031349;28;20033;-45
2022/05/24 08:02:17;;;;;;;9.77;8.93;;;16.70;99.90;;;;;;5031268;28;20033;-44
2022/05/24 08:04:43;;;;;;;10.20;9.30;;;16.80;99.90;;;;;;5031289;28;20018;-45
2022/05/24 08:07:09;;;;;;;10.85;9.82;;;16.90;99.90;;;;;;5031422;28;20030;-45
2022/05/24 08:09:35;;;;;;;11.63;10.52;;;16.80;99.90;;;;;;5031302;28;20108;-44
2022/05/24 08:12:01;;;;;;;9.93;9.02;;;16.80;99.90;;;;;;5031043;28;20636;-44
2022/05/24 08:14:26;;;;;;;9.98;9.07;;;16.90;99.90;;;;;;5029677;28;20037;-44
2022/05/24 08:16:52;;;;;;;11.05;9.95;;;16.90;99.90;;;;;;5031102;28;20037;-44
2022/05/24 08:19:17;;;;;;;11.40;10.40;;;17.20;99.90;;;;;;5031006;28;20032;-48
2022/05/24 08:21:43;;;;;;;12.48;10.68;;;17.20;99.90;;;;;;5030856;28;20025;-48
2022/05/24 08:24:09;;;;;;;10.88;9.88;;;17.20;99.90;;;;;;5030829;28;20403;-44
2022/05/24 08:26:37;;;;;;;9.90;8.98;;;17.30;99.90;;;;;;5031085;28;20447;-45
2022/05/24 08:29:03;;;;;;;11.40;10.27;;;17.40;99.90;;;;;;5031192;28;20060;-46
2022/05/24 08:31:29;;;;;;;12.48;10.73;;;17.50;99.90;;;;;;5030759;28;20029;-49
2022/05/24 08:33:54;;;;;;;10.93;8.98;;;17.60;99.90;;;;;;5030572;28;20488;-48
2022/05/24 08:36:20;;;;;;;10.10;9.00;;;17.80;99.90;;;;;;5029999;28;20037;-47
2022/05/24 08:38:46;;;;;;;11.13;9.68;;;18.00;99.90;;;;;;5030585;28;20073;-46
2022/05/24 08:41:20;;;;;;;10.27;9.27;;;18.20;99.90;;;;;;5030280;28;20041;-46
2022/05/24 08:49:52;;;;;;;8.63;7.68;;;18.00;99.90;;;;;;5030801;28;20045;-48
2022/05/24 08:52:18;;;;;;;10.52;8.30;;;17.80;99.90;;;;;;5029898;28;20056;-46
2022/05/24 08:54:45;;;;;;;9.52;7.65;;;17.70;99.90;;;;;;5030188;28;20092;-51
2022/05/24 08:57:23;;;;;;;9.20;8.30;;;17.80;99.90;;;;;;5030492;28;20045;-49
2022/05/24 09:00:11;;;;;;;9.07;7.40;;;18.10;99.90;;;;;;5030124;28;20068;-48
2022/05/24 09:02:43;;;;;;;7.53;6.82;;;18.30;99.90;;;;;;5029956;28;20028;-45
2022/05/24 09:05:35;;;;;;;7.80;7.00;;;18.40;99.90;;;;;;5030290;28;20037;-47
2022/05/24 09:08:10;;;;;;;7.93;7.22;;;18.50;99.90;;;;;;5030466;28;20116;-48
2022/05/24 09:11:07;;;;;;;8.85;7.90;;;18.30;99.90;;;;;;5030407;28;20488;-45
2022/05/24 09:13:51;;;;;;;8.07;7.28;;;18.20;99.90;;;;;;4997248;28;20037;-46
2022/05/24 09:16:17;;;;;;;8.88;7.97;;;18.10;99.90;;;;;;5030136;28;20029;-45
2022/05/24 09:18:51;;;;;;;8.52;7.63;;;18.00;99.90;;;;;;5030124;28;20021;-48
2022/05/24 09:21:26;;;;;;;10.07;9.18;;;18.00;99.90;;;;;;5028338;28;20076;-47
2022/05/24 09:24:18;;;;;;;10.30;9.23;;;18.20;99.90;;;;;;5029954;28;20049;-47
2022/05/24 09:27:16;;;;;;;11.50;10.35;;;18.20;99.90;;;;;;5030142;28;20376;-48
2022/05/24 09:29:57;;;;;;;9.80;8.80;;;18.30;99.90;;;;;;5029802;28;20108;-44
2022/05/24 09:32:30;;;;;;;10.27;9.07;;;18.60;99.90;;;;;;5029923;28;20446;-44
2022/05/24 09:35:21;;;;;;;10.63;8.73;;;18.80;99.90;;;;;;5029836;28;20060;-45
2022/05/24 09:38:08;;;;;;;11.05;8.65;;;18.90;99.90;;;;;;5029928;28;20112;-44
2022/05/24 09:40:51;;;;;;;8.88;8.00;;;19.00;99.90;;;;;;5029927;28;20116;-45
2022/05/24 09:43:26;;;;;;;9.20;8.40;;;18.90;99.90;;;;;;5028505;28;20021;-45
2022/05/24 09:45:56;;;;;;;10.33;9.43;;;18.70;99.90;;;;;;5030069;28;20091;-46
2022/05/24 09:48:26;;;;;;;10.57;9.35;;;18.40;99.90;;;;;;5030749;28;20108;-47
2022/05/24 09:50:53;;;;;;;10.55;9.02;;;18.10;99.90;;;;;;5033872;28;20061;-45
2022/05/24 09:53:22;;;;;;;10.48;9.35;;;18.00;99.90;;;;;;5033593;28;20034;-45
2022/05/24 09:55:49;;;;;;;9.93;8.93;;;17.70;99.90;;;;;;5033996;28;20124;-45
2022/05/24 09:58:29;;;;;;;10.35;9.30;;;17.60;99.90;;;;;;5032600;28;20022;-45
2022/05/24 10:01:08;;;;;;;11.40;9.68;;;17.40;99.90;;;;;;5033686;28;20025;-45
2022/05/24 10:03:40;;;;;;;12.23;9.65;;;17.30;99.90;;;;;;5033642;28;20025;-44
2022/05/24 10:06:21;;;;;;;10.32;9.23;;;17.20;99.90;;;;;;5033705;28;20107;-46
2022/05/24 10:08:51;;;;;;;9.02;8.18;;;17.10;99.90;;;;;;5033638;28;20072;-46
2022/05/24 10:11:40;;;;;;;10.13;8.38;;;17.00;99.90;;;;;;5033086;28;20029;-48
2022/05/24 10:14:11;;;;;;;10.57;9.50;;;17.00;99.90;;;;;;5033718;28;20021;-49
2022/05/24 10:16:56;;;;;;;13.43;9.90;;;16.90;99.90;;;;;;5033794;28;20040;-44
2022/05/24 10:19:49;;;;;;;10.35;9.25;;;16.90;99.90;;;;;;5032875;28;20049;-46
2022/05/24 10:22:32;;;;;;;11.98;8.95;;;16.80;99.90;;;;;;5033496;28;20036;-46
2022/05/24 10:25:36;;;;;;;9.85;8.02;;;16.80;99.90;;;;;;5033443;28;20033;-47
2022/05/24 10:28:14;;;;;;;9.35;8.00;;;16.60;99.90;;;;;;4993304;28;20038;-45
2022/05/24 10:30:53;;;;;;;11.88;9.52;;;16.60;99.90;;;;;;5031911;28;20095;-49
2022/05/24 10:39:45;;;;;;;12.75;11.45;;;16.30;99.90;;;;;;5033076;28;20267;-46
2022/05/24 10:42:48;;;;;;;16.23;11.55;;;16.30;99.90;;;;;;5032617;28;20470;-47
2022/05/24 10:45:24;;;;;;;15.65;11.85;;;16.20;99.90;;;;;;5032575;28;20026;-44
2022/05/24 10:48:02;;;;;;;13.48;10.95;;;16.20;99.90;;;;;;5032831;28;20112;-46
2022/05/24 10:50:56;;;;;;;14.07;11.77;;;16.30;99.90;;;;;;5032671;28;20030;-46
2022/05/24 10:53:38;;;;;;;12.27;10.93;;;16.40;99.90;;;;;;5002783;28;20425;-44
2022/05/24 10:56:09;;;;;;;13.00;11.55;;;16.40;99.90;;;;;;5032952;28;20037;-47
2022/05/24 10:58:39;;;;;;;13.85;10.02;;;16.40;99.90;;;;;;5031965;28;20032;-46
2022/05/24 11:01:13;;;;;;;13.77;11.80;;;16.50;99.90;;;;;;5031186;28;20030;-47
2022/05/24 11:03:49;;;;;;;13.70;11.75;;;16.60;99.90;;;;;;5032659;28;20045;-47
2022/05/24 11:06:31;;;;;;;13.82;12.38;;;16.60;99.90;;;;;;5032600;28;20032;-47
2022/05/24 11:09:19;;;;;;;15.30;12.95;;;16.60;99.90;;;;;;5032641;28;20033;-47
2022/05/24 11:12:06;;;;;;;13.23;11.88;;;16.60;99.90;;;;;;5032263;28;20022;-46
2022/05/24 11:14:51;;;;;;;12.40;11.10;;;16.60;99.90;;;;;;5032396;28;20501;-47
2022/05/24 11:17:18;;;;;;;15.90;11.70;;;16.60;99.90;;;;;;5032378;28;20037;-45
2022/05/24 11:20:04;;;;;;;12.07;10.82;;;16.50;99.90;;;;;;5031978;28;20423;-47
2022/05/24 11:22:53;;;;;;;12.90;11.55;;;16.50;99.90;;;;;;5032048;28;20495;-48
2022/05/24 11:25:30;;;;;;;12.48;10.60;;;16.50;99.90;;;;;;5032013;28;20025;-45
2022/05/24 11:28:03;;;;;;;12.73;11.43;;;16.40;99.90;;;;;;5031967;28;20014;-47
2022/05/24 11:30:36;;;;;;;12.75;11.45;;;16.50;99.90;;;;;;5032012;28;20553;-45
2022/05/24 11:33:05;;;;;;;13.27;11.30;;;16.50;99.90;;;;;;5031800;28;20037;-45
2022/05/24 11:35:52;;;;;;;15.15;13.20;;;16.40;99.90;;;;;;5031870;28;20040;-46
2022/05/24 11:38:23;;;;;;;11.63;10.48;;;16.40;99.90;;;;;;5031882;28;20049;-44
2022/05/24 11:40:55;;;;;;;12.15;9.70;;;16.30;99.90;;;;;;5032008;28;20033;-47
2022/05/24 11:43:35;;;;;;;8.85;7.93;;;16.20;99.90;;;;;;5031628;28;20441;-45
2022/05/24 11:46:38;;;;;;;11.73;5.95;;;16.10;99.90;;;;;;5031493;28;20021;-48
2022/05/24 11:49:19;;;;;;;6.07;5.40;;;16.10;99.90;;;;;;5031739;28;20036;-44
2022/05/24 11:51:55;;;;;;;5.47;3.67;;;16.00;99.90;;;;;;5031372;28;20399;-44
2022/05/24 11:54:24;;;;;;;5.25;2.90;;;16.00;99.90;;;;;;5031383;28;20029;-47
2022/05/24 11:57:01;;;;;;;4.07;3.28;;;15.90;99.90;;;;;;5031608;28;20037;-44
2022/05/24 11:59:48;;;;;;;5.68;3.53;;;15.80;99.90;;;;;;5031366;28;20037;-50
2022/05/24 12:02:19;;;;;;;6.10;5.13;;;15.80;99.90;;;;;;5031173;28;20545;-50
2022/05/24 12:07:59;;;;;;;8.68;5.20;;;15.90;99.90;;;;;;5031380;28;20033;-46
2022/05/24 12:10:35;;;;;;;9.05;5.93;;;16.00;99.90;;;;;;5030329;28;20036;-45
2022/05/24 12:13:04;;;;;;;9.00;6.53;;;16.20;99.90;;;;;;5030992;28;20112;-47
2022/05/24 12:15:29;;;;;;;8.32;6.97;;;16.20;99.90;;;;;;5031285;28;20502;-44
2022/05/24 12:17:58;;;;;;;7.00;6.03;;;16.40;99.90;;;;;;5031423;28;20048;-48
2022/05/24 12:20:49;;;;;;;8.05;7.30;;;16.60;99.90;;;;;;5031095;28;20032;-49
2022/05/24 12:23:29;;;;;;;11.35;7.45;;;16.50;99.90;;;;;;5030906;28;20409;-44
2022/05/24 12:25:59;;;;;;;8.85;7.50;;;16.50;99.90;;;;;;5030867;28;20033;-48
2022/05/24 12:28:34;;;;;;;9.35;8.00;;;16.70;99.90;;;;;;5030792;28;20021;-44
2022/05/24 12:31:01;;;;;;;7.90;6.95;;;16.80;99.90;;;;;;5029448;28;20025;-44
2022/05/24 12:33:46;;;;;;;11.07;8.05;;;16.80;99.90;;;;;;5030150;28;20040;-45
2022/05/24 12:36:28;;;;;;;10.00;7.78;;;16.90;99.90;;;;;;5030351;28;20472;-45
2022/05/24 12:39:12;;;;;;;11.30;8.07;;;17.00;99.90;;;;;;5030481;28;20438;-44
2022/05/24 12:41:43;;;;;;;8.68;7.78;;;17.20;99.90;;;;;;5030212;28;20080;-47
2022/05/24 12:44:27;;;;;;;7.90;6.88;;;17.30;99.90;;;;;;5030147;28;20032;-45
2022/05/24 12:46:58;;;;;;;10.02;7.90;;;17.40;99.90;;;;;;5030604;28;20013;-45
2022/05/24 12:49:30;;;;;;;8.63;7.63;;;17.40;99.90;;;;;;5030573;28;20033;-45
2022/05/24 12:52:03;;;;;;;11.93;7.40;;;17.30;99.90;;;;;;5029896;28;20021;-47
2022/05/24 12:54:34;;;;;;;6.68;5.93;;;17.30;99.90;;;;;;5030432;28;20430;-46
2022/05/24 12:57:26;;;;;;;6.47;5.90;;;17.50;99.90;;;;;;5029557;28;20078;-46
2022/05/24 13:00:00;;;;;;;9.10;5.78;;;17.70;99.90;;;;;;5019849;28;20039;-45
2022/05/24 13:02:45;;;;;;;6.65;5.63;;;17.80;99.90;;;;;;5030527;28;20032;-48
2022/05/24 13:05:36;;;;;;;6.15;5.05;;;18.00;99.90;;;;;;5030381;28;20124;-45
2022/05/24 13:08:02;;;;;;;9.95;5.85;;;18.20;99.90;;;;;;5030039;28;20043;-49
2022/05/24 13:10:39;;;;;;;5.85;4.15;;;18.30;99.90;;;;;;5030344;28;20017;-48
2022/05/24 13:13:06;;;;;;;6.18;4.85;;;18.40;99.90;;;;;;5029946;28;20025;-47
2022/05/24 13:15:39;;;;;;;8.13;5.10;;;18.20;99.90;;;;;;5030204;28;20498;-44
2022/05/24 13:18:13;;;;;;;5.70;4.60;;;18.10;99.90;;;;;;5030524;28;20057;-49
2022/05/24 13:20:48;;;;;;;5.18;4.38;;;18.20;99.90;;;;;;5029924;28;20055;-44
2022/05/24 13:23:17;;;;;;;6.50;4.65;;;18.40;99.90;;;;;;5028511;28;20511;-45
2022/05/24 13:25:48;;;;;;;4.85;4.43;;;18.30;99.90;;;;;;5029888;28;20079;-45
2022/05/24 13:28:31;;;;;;;5.53;4.53;;;18.30;99.90;;;;;;5030124;28;20022;-44
2022/05/24 13:33:45;;;;;;;7.03;4.53;;;18.40;99.90;;;;;;5030525;28;20087;-45
2022/05/24 13:36:15;;;;;;;5.90;4.57;;;18.30;99.90;;;;;;5030208;28;20033;-45
2022/05/24 13:38:42;;;;;;;5.07;4.35;;;18.20;99.90;;;;;;5030316;28;20579;-47
2022/05/24 13:41:10;;;;;;;5.80;4.40;;;18.20;99.90;;;;;;5029797;28;20025;-46
2022/05/24 13:43:39;;;;;;;7.07;4.38;;;18.10;99.90;;;;;;5029835;28;20017;-45
2022/05/24 13:46:25;;;;;;;5.70;3.75;;;18.10;99.90;;;;;;5029549;28;20026;-44